sensor_id;sensor_type;location;lat;lon;timestamp;pressure;altitude;pressure_sealevel;temperature;humidity
60920;BME280;59039;52.108;19.942;2023-03-03T00:02:02;101084.98;;;-1.01;76.07
60920;BME280;59039;52.108;19.942;2023-03-03T00:04:36;101085.38;;;-1.02;76.15
60920;BME280;59039;52.108;19.942;2023-03-03T00:07:10;101088.58;;;-1.02;76.21
60920;BME280;59039;52.108;19.942;2023-03-03T00:09:36;101085.95;;;-1.02;76.07
60920;BME280;59039;52.108;19.942;2023-03-03T00:12:28;101087.19;;;-1.02;75.92
60920;BME280;59039;52.108;19.942;2023-03-03T00:14:54;101085.81;;;-1.04;75.98
60920;BME280;59039;52.108;19.942;2023-03-03T00:17:23;101081.23;;;-1.05;76.27
60920;BME280;59039;52.108;19.942;2023-03-03T00:19:52;101080.92;;;-1.06;76.17
60920;BME280;59039;52.108;19.942;2023-03-03T00:22:36;101077.92;;;-1.07;76.01
60920;BME280;59039;52.108;19.942;2023-03-03T00:25:32;101077.62;;;-1.08;76.04
60920;BME280;59039;52.108;19.942;2023-03-03T00:28:29;101077.84;;;-1.09;76.26
60920;BME280;59039;52.108;19.942;2023-03-03T00:30:59;101076.11;;;-1.10;76.61
60920;BME280;59039;52.108;19.942;2023-03-03T00:33:33;101075.60;;;-1.11;76.51
60920;BME280;59039;52.108;19.942;2023-03-03T00:39:25;101074.79;;;-1.12;76.10
60920;BME280;59039;52.108;19.942;2023-03-03T00:41:51;101076.05;;;-1.13;75.89
60920;BME280;59039;52.108;19.942;2023-03-03T00:44:38;101073.08;;;-1.14;75.88
60920;BME280;59039;52.108;19.942;2023-03-03T00:47:42;101070.33;;;-1.16;75.95
60920;BME280;59039;52.108;19.942;2023-03-03T00:52:46;101061.66;;;-1.22;75.96
60920;BME280;59039;52.108;19.942;2023-03-03T00:55:15;101061.71;;;-1.23;76.06
60920;BME280;59039;52.108;19.942;2023-03-03T00:57:40;101064.60;;;-1.24;75.98
60920;BME280;59039;52.108;19.942;2023-03-03T01:00:06;101063.89;;;-1.23;76.11
60920;BME280;59039;52.108;19.942;2023-03-03T01:02:55;101057.86;;;-1.24;76.43
60920;BME280;59039;52.108;19.942;2023-03-03T01:05:21;101055.38;;;-1.24;76.94
60920;BME280;59039;52.108;19.942;2023-03-03T01:07:46;101050.91;;;-1.23;76.82
60920;BME280;59039;52.108;19.942;2023-03-03T01:10:13;101047.34;;;-1.23;76.81
60920;BME280;59039;52.108;19.942;2023-03-03T01:12:41;101041.81;;;-1.23;77.23
60920;BME280;59039;52.108;19.942;2023-03-03T01:15:11;101036.29;;;-1.23;77.37
60920;BME280;59039;52.108;19.942;2023-03-03T01:17:38;101031.44;;;-1.22;77.45
60920;BME280;59039;52.108;19.942;2023-03-03T01:22:43;101031.37;;;-1.20;76.90
60920;BME280;59039;52.108;19.942;2023-03-03T01:25:11;101033.15;;;-1.20;76.89
60920;BME280;59039;52.108;19.942;2023-03-03T01:27:37;101030.10;;;-1.19;76.71
60920;BME280;59039;52.108;19.942;2023-03-03T01:30:04;101032.63;;;-1.20;76.79
60920;BME280;59039;52.108;19.942;2023-03-03T01:32:32;101025.02;;;-1.21;76.84
60920;BME280;59039;52.108;19.942;2023-03-03T01:34:58;101024.16;;;-1.22;76.81
60920;BME280;59039;52.108;19.942;2023-03-03T01:37:24;101023.53;;;-1.24;76.89
60920;BME280;59039;52.108;19.942;2023-03-03T01:39:51;101019.73;;;-1.27;76.73
60920;BME280;59039;52.108;19.942;2023-03-03T01:42:20;101016.37;;;-1.31;77.06
60920;BME280;59039;52.108;19.942;2023-03-03T01:45:10;101014.15;;;-1.34;77.27
60920;BME280;59039;52.108;19.942;2023-03-03T01:47:36;101009.83;;;-1.36;77.56
60920;BME280;59039;52.108;19.942;2023-03-03T01:50:06;101007.95;;;-1.38;77.53
60920;BME280;59039;52.108;19.942;2023-03-03T01:52:42;101005.35;;;-1.40;77.68
60920;BME280;59039;52.108;19.942;2023-03-03T01:55:16;101001.84;;;-1.41;77.89
60920;BME280;59039;52.108;19.942;2023-03-03T01:57:51;101004.84;;;-1.40;77.84
60920;BME280;59039;52.108;19.942;2023-03-03T02:00:25;101001.83;;;-1.41;77.95
60920;BME280;59039;52.108;19.942;2023-03-03T02:02:53;100991.41;;;-1.42;77.73
60920;BME280;59039;52.108;19.942;2023-03-03T02:05:39;100988.61;;;-1.43;77.80
60920;BME280;59039;52.108;19.942;2023-03-03T02:08:09;100990.42;;;-1.44;78.06
60920;BME280;59039;52.108;19.942;2023-03-03T02:10:36;100993.46;;;-1.44;78.04
60920;BME280;59039;52.108;19.942;2023-03-03T02:13:02;100992.58;;;-1.44;78.03
60920;BME280;59039;52.108;19.942;2023-03-03T02:15:33;100990.52;;;-1.47;78.05
60920;BME280;59039;52.108;19.942;2023-03-03T02:18:12;100993.60;;;-1.48;77.91
60920;BME280;59039;52.108;19.942;2023-03-03T02:20:57;100998.61;;;-1.49;78.13
60920;BME280;59039;52.108;19.942;2023-03-03T02:26:48;100994.48;;;-1.52;78.33
60920;BME280;59039;52.108;19.942;2023-03-03T02:29:15;100998.42;;;-1.53;78.47
60920;BME280;59039;52.108;19.942;2023-03-03T02:31:42;101003.66;;;-1.55;79.31
60920;BME280;59039;52.108;19.942;2023-03-03T02:34:08;101001.25;;;-1.57;79.26
60920;BME280;59039;52.108;19.942;2023-03-03T02:36:36;101001.44;;;-1.57;79.15
60920;BME280;59039;52.108;19.942;2023-03-03T02:39:25;101000.52;;;-1.56;79.02
60920;BME280;59039;52.108;19.942;2023-03-03T02:44:42;101000.45;;;-1.55;78.40
60920;BME280;59039;52.108;19.942;2023-03-03T02:47:08;101000.09;;;-1.55;78.45
60920;BME280;59039;52.108;19.942;2023-03-03T02:49:37;101000.45;;;-1.55;78.27
60920;BME280;59039;52.108;19.942;2023-03-03T02:52:05;101005.61;;;-1.55;78.21
60920;BME280;59039;52.108;19.942;2023-03-03T02:54:30;101007.94;;;-1.55;78.61
60920;BME280;59039;52.108;19.942;2023-03-03T02:56:57;101005.27;;;-1.55;78.57
60920;BME280;59039;52.108;19.942;2023-03-03T02:59:28;101007.73;;;-1.54;78.36
60920;BME280;59039;52.108;19.942;2023-03-03T03:01:54;101008.86;;;-1.56;78.28
60920;BME280;59039;52.108;19.942;2023-03-03T03:04:25;101010.95;;;-1.55;78.48
60920;BME280;59039;52.108;19.942;2023-03-03T03:06:54;101006.48;;;-1.55;78.79
60920;BME280;59039;52.108;19.942;2023-03-03T03:09:23;101003.64;;;-1.54;78.51
60920;BME280;59039;52.108;19.942;2023-03-03T03:11:54;101006.81;;;-1.54;78.56
60920;BME280;59039;52.108;19.942;2023-03-03T03:14:29;101003.82;;;-1.54;79.39
60920;BME280;59039;52.108;19.942;2023-03-03T03:16:55;101003.92;;;-1.57;79.87
60920;BME280;59039;52.108;19.942;2023-03-03T03:19:20;101009.50;;;-1.58;79.66
60920;BME280;59039;52.108;19.942;2023-03-03T03:21:46;101015.21;;;-1.59;80.66
60920;BME280;59039;52.108;19.942;2023-03-03T03:24:14;101018.44;;;-1.60;81.59
60920;BME280;59039;52.108;19.942;2023-03-03T03:26:45;101019.40;;;-1.61;82.10
60920;BME280;59039;52.108;19.942;2023-03-03T03:29:26;101018.03;;;-1.62;82.49
60920;BME280;59039;52.108;19.942;2023-03-03T03:31:55;101012.43;;;-1.61;82.05
60920;BME280;59039;52.108;19.942;2023-03-03T03:34:41;101011.05;;;-1.57;82.19
60920;BME280;59039;52.108;19.942;2023-03-03T03:37:15;101010.80;;;-1.56;83.20
60920;BME280;59039;52.108;19.942;2023-03-03T03:39:45;101004.32;;;-1.54;81.78
60920;BME280;59039;52.108;19.942;2023-03-03T03:42:13;100999.96;;;-1.51;80.94
60920;BME280;59039;52.108;19.942;2023-03-03T03:44:46;100994.13;;;-1.48;80.50
60920;BME280;59039;52.108;19.942;2023-03-03T03:47:14;100991.90;;;-1.45;82.13
60920;BME280;59039;52.108;19.942;2023-03-03T03:49:42;100990.23;;;-1.44;83.05
60920;BME280;59039;52.108;19.942;2023-03-03T03:52:13;100992.15;;;-1.43;83.21
60920;BME280;59039;52.108;19.942;2023-03-03T03:54:49;100987.54;;;-1.43;84.14
60920;BME280;59039;52.108;19.942;2023-03-03T03:57:17;100977.67;;;-1.41;82.93
60920;BME280;59039;52.108;19.942;2023-03-03T04:00:03;100976.45;;;-1.37;82.45
60920;BME280;59039;52.108;19.942;2023-03-03T04:02:48;100971.27;;;-1.33;81.78
60920;BME280;59039;52.108;19.942;2023-03-03T04:05:17;100968.29;;;-1.30;81.55
60920;BME280;59039;52.108;19.942;2023-03-03T04:07:43;100968.16;;;-1.27;82.10
60920;BME280;59039;52.108;19.942;2023-03-03T04:10:21;100972.54;;;-1.25;83.40
60920;BME280;59039;52.108;19.942;2023-03-03T04:12:46;100974.69;;;-1.26;84.31
60920;BME280;59039;52.108;19.942;2023-03-03T04:15:14;100977.88;;;-1.25;83.98
60920;BME280;59039;52.108;19.942;2023-03-03T04:17:42;100978.19;;;-1.24;84.33
60920;BME280;59039;52.108;19.942;2023-03-03T04:20:24;100969.94;;;-1.22;83.74
60920;BME280;59039;52.108;19.942;2023-03-03T04:23:10;100961.60;;;-1.18;82.63
60920;BME280;59039;52.108;19.942;2023-03-03T04:25:36;100959.34;;;-1.15;82.78
60920;BME280;59039;52.108;19.942;2023-03-03T04:28:02;100963.46;;;-1.12;82.91
60920;BME280;59039;52.108;19.942;2023-03-03T04:30:46;100960.30;;;-1.09;83.37
60920;BME280;59039;52.108;19.942;2023-03-03T04:33:15;100946.40;;;-1.05;82.12
60920;BME280;59039;52.108;19.942;2023-03-03T04:35:40;100951.30;;;-1.03;81.78
60920;BME280;59039;52.108;19.942;2023-03-03T04:38:11;100957.84;;;-1.01;82.13
60920;BME280;59039;52.108;19.942;2023-03-03T04:40:39;100957.94;;;-0.99;81.96
60920;BME280;59039;52.108;19.942;2023-03-03T04:43:15;100959.61;;;-0.97;81.91
60920;BME280;59039;52.108;19.942;2023-03-03T04:45:40;100954.90;;;-0.95;82.04
60920;BME280;59039;52.108;19.942;2023-03-03T04:48:22;100954.31;;;-0.94;82.71
60920;BME280;59039;52.108;19.942;2023-03-03T04:50:47;100954.08;;;-0.93;82.97
60920;BME280;59039;52.108;19.942;2023-03-03T04:53:12;100949.38;;;-0.92;82.88
60920;BME280;59039;52.108;19.942;2023-03-03T04:55:41;100944.66;;;-0.89;82.70
60920;BME280;59039;52.108;19.942;2023-03-03T04:58:12;100945.08;;;-0.87;82.65
60920;BME280;59039;52.108;19.942;2023-03-03T05:00:40;100945.52;;;-0.85;83.05
60920;BME280;59039;52.108;19.942;2023-03-03T05:03:06;100940.46;;;-0.83;82.62
60920;BME280;59039;52.108;19.942;2023-03-03T05:05:36;100939.27;;;-0.80;82.85
60920;BME280;59039;52.108;19.942;2023-03-03T05:08:02;100938.11;;;-0.78;82.70
60920;BME280;59039;52.108;19.942;2023-03-03T05:10:28;100941.05;;;-0.76;82.99
60920;BME280;59039;52.108;19.942;2023-03-03T05:12:58;100949.70;;;-0.75;83.58
60920;BME280;59039;52.108;19.942;2023-03-03T05:15:27;100950.84;;;-0.73;83.26
60920;BME280;59039;52.108;19.942;2023-03-03T05:17:55;100949.69;;;-0.70;82.70
60920;BME280;59039;52.108;19.942;2023-03-03T05:20:26;100945.84;;;-0.68;82.42
60920;BME280;59039;52.108;19.942;2023-03-03T05:25:40;100943.41;;;-0.66;82.27
60920;BME280;59039;52.108;19.942;2023-03-03T05:28:11;100938.77;;;-0.65;81.68
60920;BME280;59039;52.108;19.942;2023-03-03T05:30:45;100940.74;;;-0.66;81.66
60920;BME280;59039;52.108;19.942;2023-03-03T05:33:13;100945.10;;;-0.68;82.81
60920;BME280;59039;52.108;19.942;2023-03-03T05:35:39;100948.45;;;-0.67;82.74
60920;BME280;59039;52.108;19.942;2023-03-03T05:40:40;100952.77;;;-0.68;83.76
60920;BME280;59039;52.108;19.942;2023-03-03T05:43:05;100954.40;;;-0.69;83.71
60920;BME280;59039;52.108;19.942;2023-03-03T05:45:34;100950.98;;;-0.68;83.52
60920;BME280;59039;52.108;19.942;2023-03-03T05:47:59;100949.48;;;-0.66;83.25
60920;BME280;59039;52.108;19.942;2023-03-03T05:50:25;100942.59;;;-0.63;82.74
60920;BME280;59039;52.108;19.942;2023-03-03T05:52:51;100946.63;;;-0.61;82.82
60920;BME280;59039;52.108;19.942;2023-03-03T05:55:19;100941.61;;;-0.61;83.13
60920;BME280;59039;52.108;19.942;2023-03-03T05:57:44;100940.96;;;-0.59;82.77
60920;BME280;59039;52.108;19.942;2023-03-03T06:00:18;100945.45;;;-0.56;83.37
60920;BME280;59039;52.108;19.942;2023-03-03T06:02:43;100948.21;;;-0.54;83.13
60920;BME280;59039;52.108;19.942;2023-03-03T06:05:09;100943.86;;;-0.52;83.01
60920;BME280;59039;52.108;19.942;2023-03-03T06:07:35;100946.54;;;-0.52;83.77
60920;BME280;59039;52.108;19.942;2023-03-03T06:10:10;100952.41;;;-0.53;84.32
60920;BME280;59039;52.108;19.942;2023-03-03T06:12:35;100952.39;;;-0.52;83.87
60920;BME280;59039;52.108;19.942;2023-03-03T06:15:22;100950.36;;;-0.50;83.62
60920;BME280;59039;52.108;19.942;2023-03-03T06:17:48;100950.52;;;-0.50;84.41
60920;BME280;59039;52.108;19.942;2023-03-03T06:20:14;100947.77;;;-0.48;83.52
60920;BME280;59039;52.108;19.942;2023-03-03T06:22:39;100950.71;;;-0.47;83.50
60920;BME280;59039;52.108;19.942;2023-03-03T06:25:05;100952.04;;;-0.44;83.48
60920;BME280;59039;52.108;19.942;2023-03-03T06:27:31;100952.21;;;-0.40;83.61
60920;BME280;59039;52.108;19.942;2023-03-03T06:29:58;100952.96;;;-0.37;83.39
60920;BME280;59039;52.108;19.942;2023-03-03T06:32:24;100951.12;;;-0.36;83.78
60920;BME280;59039;52.108;19.942;2023-03-03T06:34:49;100956.21;;;-0.35;84.20
60920;BME280;59039;52.108;19.942;2023-03-03T06:37:15;100958.89;;;-0.35;84.33
60920;BME280;59039;52.108;19.942;2023-03-03T06:39:40;100959.42;;;-0.35;84.47
60920;BME280;59039;52.108;19.942;2023-03-03T06:42:06;100960.73;;;-0.36;84.36
60920;BME280;59039;52.108;19.942;2023-03-03T06:44:34;100958.04;;;-0.35;84.37
60920;BME280;59039;52.108;19.942;2023-03-03T06:46:59;100958.25;;;-0.36;84.37
60920;BME280;59039;52.108;19.942;2023-03-03T06:49:33;100964.63;;;-0.35;83.71
60920;BME280;59039;52.108;19.942;2023-03-03T06:52:00;100968.42;;;-0.37;84.42
60920;BME280;59039;52.108;19.942;2023-03-03T06:54:30;100967.20;;;-0.37;84.34
60920;BME280;59039;52.108;19.942;2023-03-03T06:57:10;100959.43;;;-0.35;83.93
60920;BME280;59039;52.108;19.942;2023-03-03T06:59:46;100953.05;;;-0.32;83.22
60920;BME280;59039;52.108;19.942;2023-03-03T07:02:15;100957.05;;;-0.30;83.33
60920;BME280;59039;52.108;19.942;2023-03-03T07:04:44;100950.09;;;-0.29;83.52
60920;BME280;59039;52.108;19.942;2023-03-03T07:10:24;100939.05;;;-0.22;83.56
60920;BME280;59039;52.108;19.942;2023-03-03T07:12:49;100927.39;;;-0.20;82.99
60920;BME280;59039;52.108;19.942;2023-03-03T07:15:21;100927.14;;;-0.19;82.91
60920;BME280;59039;52.108;19.942;2023-03-03T07:17:49;100935.33;;;-0.18;82.89
60920;BME280;59039;52.108;19.942;2023-03-03T07:20:23;100937.05;;;-0.17;82.73
60920;BME280;59039;52.108;19.942;2023-03-03T07:22:52;100929.02;;;-0.17;82.55
60920;BME280;59039;52.108;19.942;2023-03-03T07:25:32;100936.05;;;-0.18;83.24
60920;BME280;59039;52.108;19.942;2023-03-03T07:33:33;100939.65;;;-0.15;82.71
60920;BME280;59039;52.108;19.942;2023-03-03T07:36:01;100936.20;;;-0.14;82.31
60920;BME280;59039;52.108;19.942;2023-03-03T07:38:50;100935.64;;;-0.14;82.34
60920;BME280;59039;52.108;19.942;2023-03-03T07:41:26;100936.71;;;-0.14;83.58
60920;BME280;59039;52.108;19.942;2023-03-03T07:43:54;100939.66;;;-0.12;83.87
60920;BME280;59039;52.108;19.942;2023-03-03T07:46:35;100949.23;;;-0.11;83.79
60920;BME280;59039;52.108;19.942;2023-03-03T07:49:27;100944.73;;;-0.10;83.98
60920;BME280;59039;52.108;19.942;2023-03-03T07:51:58;100952.20;;;-0.10;84.07
60920;BME280;59039;52.108;19.942;2023-03-03T07:54:50;100952.66;;;-0.08;83.99
60920;BME280;59039;52.108;19.942;2023-03-03T07:57:41;100948.08;;;-0.06;84.38
60920;BME280;59039;52.108;19.942;2023-03-03T08:03:07;100950.14;;;-0.01;84.11
60920;BME280;59039;52.108;19.942;2023-03-03T08:05:41;100945.84;;;0.00;83.70
60920;BME280;59039;52.108;19.942;2023-03-03T08:11:11;100944.95;;;0.04;83.23
60920;BME280;59039;52.108;19.942;2023-03-03T08:13:38;100944.52;;;0.06;83.65
60920;BME280;59039;52.108;19.942;2023-03-03T08:18:42;100945.25;;;0.09;83.60
60920;BME280;59039;52.108;19.942;2023-03-03T08:21:18;100945.83;;;0.11;83.45
60920;BME280;59039;52.108;19.942;2023-03-03T08:23:46;100950.86;;;0.14;82.75
60920;BME280;59039;52.108;19.942;2023-03-03T08:26:22;100953.45;;;0.16;82.63
60920;BME280;59039;52.108;19.942;2023-03-03T08:28:48;100961.78;;;0.17;83.39
60920;BME280;59039;52.108;19.942;2023-03-03T08:31:16;100972.40;;;0.18;84.03
60920;BME280;59039;52.108;19.942;2023-03-03T08:33:49;100974.55;;;0.22;83.66
60920;BME280;59039;52.108;19.942;2023-03-03T08:36:17;100973.92;;;0.24;83.71
60920;BME280;59039;52.108;19.942;2023-03-03T08:38:43;100969.30;;;0.24;83.40
60920;BME280;59039;52.108;19.942;2023-03-03T08:41:11;100968.00;;;0.25;82.92
60920;BME280;59039;52.108;19.942;2023-03-03T08:43:39;100967.80;;;0.25;83.37
60920;BME280;59039;52.108;19.942;2023-03-03T08:46:06;100972.41;;;0.25;83.75
60920;BME280;59039;52.108;19.942;2023-03-03T08:48:32;100978.59;;;0.26;84.16
60920;BME280;59039;52.108;19.942;2023-03-03T08:50:58;100978.89;;;0.28;84.12
60920;BME280;59039;52.108;19.942;2023-03-03T08:53:24;100977.10;;;0.31;83.42
60920;BME280;59039;52.108;19.942;2023-03-03T08:55:50;100970.84;;;0.35;82.86
60920;BME280;59039;52.108;19.942;2023-03-03T08:58:19;100977.42;;;0.36;83.20
60920;BME280;59039;52.108;19.942;2023-03-03T09:00:45;100981.50;;;0.36;83.28
60920;BME280;59039;52.108;19.942;2023-03-03T09:03:14;100983.32;;;0.35;83.39
60920;BME280;59039;52.108;19.942;2023-03-03T09:05:39;100986.92;;;0.35;83.56
60920;BME280;59039;52.108;19.942;2023-03-03T09:08:06;100985.80;;;0.36;83.70
60920;BME280;59039;52.108;19.942;2023-03-03T09:10:38;100985.02;;;0.37;83.75
60920;BME280;59039;52.108;19.942;2023-03-03T09:13:09;100988.14;;;0.39;83.36
60920;BME280;59039;52.108;19.942;2023-03-03T09:18:22;100993.50;;;0.39;83.65
60920;BME280;59039;52.108;19.942;2023-03-03T09:20:54;100993.40;;;0.37;83.93
60920;BME280;59039;52.108;19.942;2023-03-03T09:25:51;100999.05;;;0.34;84.15
60920;BME280;59039;52.108;19.942;2023-03-03T09:30:52;100996.58;;;0.34;84.37
60920;BME280;59039;52.108;19.942;2023-03-03T09:33:26;100990.52;;;0.34;84.40
60920;BME280;59039;52.108;19.942;2023-03-03T09:36:10;100986.83;;;0.33;83.70
60920;BME280;59039;52.108;19.942;2023-03-03T09:38:39;100984.09;;;0.31;83.54
60920;BME280;59039;52.108;19.942;2023-03-03T09:51:43;100986.84;;;0.29;83.40
60920;BME280;59039;52.108;19.942;2023-03-03T09:54:42;100991.79;;;0.30;83.30
60920;BME280;59039;52.108;19.942;2023-03-03T10:03:02;100978.98;;;0.30;83.26
60920;BME280;59039;52.108;19.942;2023-03-03T10:14:26;100970.56;;;0.27;82.94
60920;BME280;59039;52.108;19.942;2023-03-03T10:23:14;100962.27;;;0.25;82.88
60920;BME280;59039;52.108;19.942;2023-03-03T10:25:55;100959.19;;;0.26;82.77
60920;BME280;59039;52.108;19.942;2023-03-03T10:28:56;100954.49;;;0.27;82.65
60920;BME280;59039;52.108;19.942;2023-03-03T10:34:42;100956.17;;;0.26;83.17
60920;BME280;59039;52.108;19.942;2023-03-03T10:37:42;100954.38;;;0.26;83.17
60920;BME280;59039;52.108;19.942;2023-03-03T10:43:15;100954.00;;;0.30;82.69
60920;BME280;59039;52.108;19.942;2023-03-03T10:49:19;100962.88;;;0.31;82.72
60920;BME280;59039;52.108;19.942;2023-03-03T10:52:03;100963.73;;;0.32;82.60
60920;BME280;59039;52.108;19.942;2023-03-03T11:04:46;100965.19;;;0.27;82.55
60920;BME280;59039;52.108;19.942;2023-03-03T11:07:36;100959.29;;;0.28;82.08
60920;BME280;59039;52.108;19.942;2023-03-03T11:10:37;100956.50;;;0.26;82.22
60920;BME280;59039;52.108;19.942;2023-03-03T11:18:55;100969.85;;;0.23;82.55
60920;BME280;59039;52.108;19.942;2023-03-03T11:22:06;100968.46;;;0.22;82.67
60920;BME280;59039;52.108;19.942;2023-03-03T11:28:01;100974.12;;;0.23;82.88
60920;BME280;59039;52.108;19.942;2023-03-03T11:36:12;100975.28;;;0.21;83.13
60920;BME280;59039;52.108;19.942;2023-03-03T11:42:01;100976.45;;;0.23;83.02
60920;BME280;59039;52.108;19.942;2023-03-03T11:44:37;100972.95;;;0.25;83.04
60920;BME280;59039;52.108;19.942;2023-03-03T11:47:26;100966.71;;;0.25;83.10
60920;BME280;59039;52.108;19.942;2023-03-03T11:49:58;100964.78;;;0.25;83.10
60920;BME280;59039;52.108;19.942;2023-03-03T12:00:40;100948.30;;;0.15;83.32
60920;BME280;59039;52.108;19.942;2023-03-03T12:03:28;100946.31;;;0.12;83.44
60920;BME280;59039;52.108;19.942;2023-03-03T12:11:27;100942.20;;;0.13;83.30
60920;BME280;59039;52.108;19.942;2023-03-03T12:28:42;100937.69;;;0.03;83.66
60920;BME280;59039;52.108;19.942;2023-03-03T12:31:40;100940.68;;;-0.00;83.86
60920;BME280;59039;52.108;19.942;2023-03-03T12:40:18;100941.48;;;-0.09;84.14
60920;BME280;59039;52.108;19.942;2023-03-03T12:48:17;100946.95;;;-0.08;84.15
60920;BME280;59039;52.108;19.942;2023-03-03T12:54:22;100944.55;;;-0.03;84.32
60920;BME280;59039;52.108;19.942;2023-03-03T12:56:57;100944.41;;;0.00;84.16
60920;BME280;59039;52.108;19.942;2023-03-03T12:59:53;100941.91;;;0.00;84.12
60920;BME280;59039;52.108;19.942;2023-03-03T13:08:17;100948.77;;;0.02;83.47
60920;BME280;59039;52.108;19.942;2023-03-03T13:11:04;100946.73;;;0.04;83.70
60920;BME280;59039;52.108;19.942;2023-03-03T13:13:46;100947.45;;;0.04;83.63
60920;BME280;59039;52.108;19.942;2023-03-03T13:16:24;100949.42;;;0.04;83.50
60920;BME280;59039;52.108;19.942;2023-03-03T13:19:16;100946.55;;;0.04;83.48
60920;BME280;59039;52.108;19.942;2023-03-03T13:21:54;100941.04;;;0.04;83.48
60920;BME280;59039;52.108;19.942;2023-03-03T13:24:34;100935.29;;;0.05;83.21
60920;BME280;59039;52.108;19.942;2023-03-03T13:27:40;100939.10;;;0.07;83.23
60920;BME280;59039;52.108;19.942;2023-03-03T13:30:26;100935.80;;;0.09;83.27
60920;BME280;59039;52.108;19.942;2023-03-03T13:35:57;100930.25;;;0.09;82.58
60920;BME280;59039;52.108;19.942;2023-03-03T13:38:57;100922.58;;;0.10;82.55
60920;BME280;59039;52.108;19.942;2023-03-03T13:41:34;100921.48;;;0.10;82.55
60920;BME280;59039;52.108;19.942;2023-03-03T13:52:21;100909.90;;;0.10;82.41
60920;BME280;59039;52.108;19.942;2023-03-03T14:13:45;100902.09;;;0.02;82.22
60920;BME280;59039;52.108;19.942;2023-03-03T14:25:01;100907.65;;;-0.02;82.33
60920;BME280;59039;52.108;19.942;2023-03-03T14:27:57;100903.15;;;-0.01;82.39
60920;BME280;59039;52.108;19.942;2023-03-03T14:33:25;100898.42;;;0.05;82.35
60920;BME280;59039;52.108;19.942;2023-03-03T14:36:11;100894.63;;;0.06;82.27
60920;BME280;59039;52.108;19.942;2023-03-03T14:38:40;100893.82;;;0.07;82.19
60920;BME280;59039;52.108;19.942;2023-03-03T14:41:37;100882.38;;;0.08;82.06
60920;BME280;59039;52.108;19.942;2023-03-03T14:44:26;100875.20;;;0.06;82.28
60920;BME280;59039;52.108;19.942;2023-03-03T14:47:15;100874.09;;;0.06;82.31
60920;BME280;59039;52.108;19.942;2023-03-03T14:49:44;100879.86;;;0.09;82.09
60920;BME280;59039;52.108;19.942;2023-03-03T14:54:44;100880.86;;;0.10;81.83
60920;BME280;59039;52.108;19.942;2023-03-03T14:57:42;100879.07;;;0.10;81.73
60920;BME280;59039;52.108;19.942;2023-03-03T15:03:19;100876.43;;;0.13;81.84
60920;BME280;59039;52.108;19.942;2023-03-03T15:06:11;100878.13;;;0.15;81.78
60920;BME280;59039;52.108;19.942;2023-03-03T15:08:47;100882.05;;;0.14;81.92
60920;BME280;59039;52.108;19.942;2023-03-03T15:11:31;100876.54;;;0.14;81.70
60920;BME280;59039;52.108;19.942;2023-03-03T15:14:30;100871.84;;;0.16;81.97
60920;BME280;59039;52.108;19.942;2023-03-03T15:17:23;100870.22;;;0.16;81.94
60920;BME280;59039;52.108;19.942;2023-03-03T15:28:53;100866.95;;;0.13;81.09
60920;BME280;59039;52.108;19.942;2023-03-03T15:31:57;100875.35;;;0.09;81.22
60920;BME280;59039;52.108;19.942;2023-03-03T15:34:41;100877.39;;;0.08;81.40
60920;BME280;59039;52.108;19.942;2023-03-03T15:37:23;100871.58;;;0.07;81.18
60920;BME280;59039;52.108;19.942;2023-03-03T15:40:39;100875.05;;;0.05;81.17
60920;BME280;59039;52.108;19.942;2023-03-03T15:43:13;100874.75;;;0.04;81.32
60920;BME280;59039;52.108;19.942;2023-03-03T15:57:40;100875.92;;;-0.02;81.55
60920;BME280;59039;52.108;19.942;2023-03-03T16:03:26;100884.26;;;-0.08;81.43
60920;BME280;59039;52.108;19.942;2023-03-03T16:05:53;100881.39;;;-0.08;81.63
60920;BME280;59039;52.108;19.942;2023-03-03T16:08:28;100880.47;;;-0.08;81.57
60920;BME280;59039;52.108;19.942;2023-03-03T16:11:05;100875.45;;;-0.07;81.57
60920;BME280;59039;52.108;19.942;2023-03-03T16:22:02;100864.09;;;-0.11;81.29
60920;BME280;59039;52.108;19.942;2023-03-03T16:30:14;100860.93;;;-0.12;80.93
60920;BME280;59039;52.108;19.942;2023-03-03T16:38:57;100850.30;;;-0.13;80.80
60920;BME280;59039;52.108;19.942;2023-03-03T16:41:43;100852.31;;;-0.14;80.80
60920;BME280;59039;52.108;19.942;2023-03-03T16:44:32;100863.14;;;-0.13;80.65
60920;BME280;59039;52.108;19.942;2023-03-03T16:56:15;100852.78;;;-0.03;80.88
60920;BME280;59039;52.108;19.942;2023-03-03T16:58:51;100855.98;;;0.01;80.67
60920;BME280;59039;52.108;19.942;2023-03-03T17:01:49;100850.19;;;0.04;80.63
60920;BME280;59039;52.108;19.942;2023-03-03T17:07:58;100855.23;;;0.06;80.16
60920;BME280;59039;52.108;19.942;2023-03-03T17:10:40;100861.45;;;0.03;79.87
60920;BME280;59039;52.108;19.942;2023-03-03T17:13:13;100858.64;;;0.02;80.03
60920;BME280;59039;52.108;19.942;2023-03-03T17:28:17;100855.48;;;0.01;79.90
60920;BME280;59039;52.108;19.942;2023-03-03T17:31:09;100859.14;;;0.03;79.85
60920;BME280;59039;52.108;19.942;2023-03-03T17:36:40;100866.91;;;0.08;79.94
60920;BME280;59039;52.108;19.942;2023-03-03T17:42:20;100861.70;;;0.12;79.94
60920;BME280;59039;52.108;19.942;2023-03-03T17:45:12;100869.12;;;0.13;79.98
60920;BME280;59039;52.108;19.942;2023-03-03T17:51:00;100860.48;;;0.18;79.93
60920;BME280;59039;52.108;19.942;2023-03-03T18:08:03;100851.05;;;0.29;79.85
60920;BME280;59039;52.108;19.942;2023-03-03T18:22:10;100828.21;;;0.29;79.79
60920;BME280;59039;52.108;19.942;2023-03-03T18:30:24;100815.48;;;0.31;79.66
60920;BME280;59039;52.108;19.942;2023-03-03T18:35:36;100814.94;;;0.34;79.72
60920;BME280;59039;52.108;19.942;2023-03-03T18:40:52;100811.17;;;0.34;79.62
60920;BME280;59039;52.108;19.942;2023-03-03T18:50:04;100809.17;;;0.39;79.32
60920;BME280;59039;52.108;19.942;2023-03-03T18:52:27;100800.98;;;0.42;79.41